Time;durP1;ratioP1;P1;durP2;ratioP2;P2;SDS_P1;SDS_P2;PMS_P1;PMS_P2;Temp;Humidity;BMP_temperature;BMP_pressure;BME280_temperature;BME280_humidity;BME280_pressure;Samples;Min_cycle;Max_cycle;Signal;HPM_P1;HPM_P2
2021/11/14 08:29:22;;;;;;;39.35;24.92;;;256.60;2252.80;;;;;;4827728;29;20061;-87
2021/11/14 08:45:09;;;;;;;31.67;22.25;;;282.40;2201.60;;;;;;4812268;29;20029;-90
2021/11/14 08:47:35;;;;;;;32.30;22.00;;;307.40;2176.00;;;;;;4795982;29;20401;-90
2021/11/14 08:50:02;;;;;;;30.40;22.80;;;307.70;2150.40;;;;;;4800895;29;20058;-87
2021/11/14 08:52:29;;;;;;;30.75;21.75;;;333.20;2048.00;;;;;;4799183;29;20030;-88
2021/11/14 08:54:55;;;;;;;34.10;24.23;;;358.80;1920.00;;;;;;4799283;29;20027;-87
2021/11/14 08:57:21;;;;;;;33.63;23.20;;;359.10;1843.20;;;;;;4803767;29;20042;-90
2021/11/14 08:59:49;;;;;;;32.22;23.85;;;358.80;1868.80;;;;;;4809417;29;20060;-90
2021/11/14 09:02:15;;;;;;;29.27;21.02;;;358.80;1868.80;;;;;;4809645;29;20105;-88
2021/11/14 09:04:41;;;;;;;28.23;21.40;;;359.10;1817.60;;;;;;4794319;29;20035;-88
2021/11/14 09:07:08;;;;;;;30.15;22.67;;;384.20;1792.00;;;;;;4791462;29;20034;-86
2021/11/14 09:09:35;;;;;;;33.15;23.60;;;384.70;1740.80;;;;;;4793039;29;20027;-86
2021/11/14 09:12:01;;;;;;;28.50;20.92;;;410.30;1664.00;;;;;;4789516;29;20133;-87
2021/11/14 09:14:27;;;;;;;30.33;21.45;;;461.10;1484.80;;;;;;4773351;30;20035;-84
2021/11/14 09:16:54;;;;;;;29.40;20.67;;;461.30;1510.40;;;;;;4798757;29;20397;-91
2021/11/14 09:19:21;;;;;;;28.45;20.02;;;512.30;1459.20;;;;;;4794069;29;20037;-85
2021/11/14 09:21:48;;;;;;;30.20;21.88;;;538.40;1228.80;;;;;;4793275;29;20026;-83
2021/11/14 09:24:14;;;;;;;29.95;23.23;;;563.90;1152.00;;;;;;4800603;29;20030;-85
2021/11/14 09:26:40;;;;;;;27.67;20.95;;;589.70;1075.20;;;;;;4809433;29;20026;-89
2021/11/14 09:29:07;;;;;;;32.28;19.83;;;563.70;1152.00;;;;;;4809886;29;20081;-91
2021/11/14 09:31:34;;;;;;;31.75;23.25;;;563.40;1177.60;;;;;;4809251;29;20030;-90
2021/11/14 09:34:01;;;;;;;33.63;22.27;;;589.70;1100.80;;;;;;4810245;29;20058;-84
2021/11/14 09:36:30;;;;;;;28.95;21.58;;;691.20;947.20;;;;;;4809547;29;20057;-83
2021/11/14 09:38:58;;;;;;;23.65;18.73;;;716.80;896.00;;;;;;4809028;29;20068;-84
2021/11/14 09:41:25;;;;;;;23.85;17.67;;;691.90;844.80;;;;;;4809107;29;20404;-86
2021/11/14 09:43:52;;;;;;;22.63;17.70;;;692.00;819.20;;;;;;4809248;29;20490;-89
2021/11/14 09:46:19;;;;;;;21.75;18.27;;;666.40;896.00;;;;;;4811232;29;20071;-86
2021/11/14 09:48:46;;;;;;;24.48;20.38;;;666.20;896.00;;;;;;4815048;29;20485;-88
2021/11/14 09:51:12;;;;;;;23.02;18.70;;;717.60;819.20;;;;;;4797187;29;20027;-84
2021/11/14 09:53:38;;;;;;;22.50;17.17;;;743.30;793.60;;;;;;4796728;29;20469;-84
2021/11/14 09:56:06;;;;;;;24.05;18.02;;;743.10;793.60;;;;;;4796750;29;20035;-88
2021/11/14 09:58:34;;;;;;;21.75;18.67;;;717.00;793.60;;;;;;4796690;29;20454;-86
2021/11/14 10:01:00;;;;;;;25.08;18.45;;;717.00;793.60;;;;;;4796627;29;20409;-85
2021/11/14 10:03:27;;;;;;;27.27;19.50;;;691.90;819.20;;;;;;4796966;29;20489;-83
2021/11/14 10:05:53;;;;;;;21.08;15.93;;;666.30;844.80;;;;;;4796713;29;20172;-86
2021/11/14 10:08:19;;;;;;;23.40;17.23;;;640.60;844.80;;;;;;4796699;29;20121;-86
2021/11/14 10:10:52;;;;;;;24.60;18.95;;;614.70;947.20;;;;;;4796700;29;20030;-88
2021/11/14 10:13:30;;;;;;;24.15;19.85;;;589.10;1024.00;;;;;;4796901;29;20031;-87
2021/11/14 10:16:12;;;;;;;28.50;19.48;;;563.70;1075.20;;;;;;4799734;29;20477;-87
2021/11/14 10:18:39;;;;;;;23.77;19.05;;;;;;;;;;4814292;29;20038;-87
2021/11/14 10:21:06;;;;;;;26.10;19.35;;;538.40;1100.80;;;;;;4811509;29;20393;-86
2021/11/14 10:23:34;;;;;;;28.27;19.33;;;563.70;1049.60;;;;;;4796515;29;20057;-85
2021/11/14 10:26:10;;;;;;;24.25;18.23;;;614.40;1024.00;;;;;;4796482;29;20031;-85
2021/11/14 10:28:38;;;;;;;29.08;21.58;;;615.00;947.20;;;;;;4795954;29;20130;-88
2021/11/14 10:31:05;;;;;;;26.48;20.65;;;666.10;896.00;;;;;;4811667;29;20038;-87
2021/11/14 10:33:31;;;;;;;26.45;19.85;;;615.30;921.60;;;;;;4801145;29;20041;-85
2021/11/14 10:35:58;;;;;;;32.50;21.33;;;614.50;998.40;;;;;;4797378;29;20031;-88
2021/11/14 10:38:29;;;;;;;33.42;24.08;;;589.70;998.40;;;;;;4796567;29;20396;-87
2021/11/14 10:41:00;;;;;;;31.08;21.35;;;589.00;1049.60;;;;;;4796575;29;20027;-87
2021/11/14 10:43:27;;;;;;;41.13;28.88;;;538.10;1126.40;;;;;;4797674;29;20192;-90
2021/11/14 10:45:55;;;;;;;28.75;21.45;;;512.40;1177.60;;;;;;4796533;29;20026;-84
2021/11/14 10:48:24;;;;;;;34.47;22.45;;;486.90;1254.40;;;;;;4797150;29;20031;-84
2021/11/14 10:50:54;;;;;;;36.22;23.70;;;487.20;1254.40;;;;;;4796363;29;20719;-84
2021/11/14 10:53:24;;;;;;;33.60;23.45;;;512.60;1126.40;;;;;;4796384;29;20058;-83
2021/11/14 10:55:53;;;;;;;43.47;29.27;;;563.40;1100.80;;;;;;4796686;29;20031;-83
2021/11/14 10:58:22;;;;;;;27.65;19.30;;;564.10;1049.60;;;;;;4794234;29;20047;-90
2021/11/14 11:00:52;;;;;;;26.83;18.75;;;537.80;1100.80;;;;;;4793384;29;20037;-84
2021/11/14 11:03:18;;;;;;;27.88;19.48;;;487.20;1382.40;;;;;;4793806;29;20083;-83
2021/11/14 11:05:44;;;;;;;25.55;18.88;;;486.60;1280.00;;;;;;4793542;29;20563;-83
2021/11/14 11:08:18;;;;;;;26.80;19.42;;;461.30;1331.20;;;;;;4792956;29;20044;-83
2021/11/14 11:11:06;;;;;;;26.02;19.98;;;460.90;1382.40;;;;;;4793533;29;20031;-83
2021/11/14 11:13:35;;;;;;;26.63;19.70;;;436.00;1408.00;;;;;;4793202;29;20524;-83
2021/11/14 11:16:04;;;;;;;25.00;18.45;;;435.80;1408.00;;;;;;4808261;29;20034;-83
2021/11/14 11:18:31;;;;;;;30.23;20.98;;;435.60;1433.60;;;;;;4793010;29;20568;-84
2021/11/14 11:20:58;;;;;;;41.05;25.50;;;435.50;1459.20;;;;;;4793108;29;20031;-84
2021/11/14 11:23:25;;;;;;;33.83;20.38;;;435.40;1484.80;;;;;;4793160;29;20031;-84
2021/11/14 11:25:55;;;;;;;32.47;22.70;;;435.40;1484.80;;;;;;4793080;29;20104;-84
2021/11/14 11:28:27;;;;;;;32.35;22.02;;;435.40;1484.80;;;;;;4792791;29;20035;-84
2021/11/14 11:31:00;;;;;;;34.17;22.02;;;435.30;1510.40;;;;;;4794124;29;20472;-85
2021/11/14 11:33:29;;;;;;;65.32;33.15;;;410.50;1510.40;;;;;;4793118;29;20027;-86
2021/11/14 11:35:55;;;;;;;51.60;29.27;;;410.40;1510.40;;;;;;4792763;29;20038;-86
2021/11/14 11:38:24;;;;;;;52.42;31.58;;;410.50;1510.40;;;;;;4792945;29;20050;-93
2021/11/14 11:40:50;;;;;;;40.95;24.90;;;410.50;1536.00;;;;;;4792658;29;20069;-85
2021/11/14 11:43:16;;;;;;;34.97;19.92;;;410.40;1638.40;;;;;;4792724;29;20396;-86
2021/11/14 11:45:45;;;;;;;38.97;23.27;;;410.30;1510.40;;;;;;4792524;29;20031;-86
2021/11/14 11:48:24;;;;;;;41.53;24.77;;;410.30;1536.00;;;;;;4792733;29;20088;-86
2021/11/14 11:50:52;;;;;;;32.17;20.15;;;410.30;1536.00;;;;;;4792559;29;20100;-87
2021/11/14 11:53:26;;;;;;;35.90;21.55;;;410.30;1510.40;;;;;;4792566;29;20508;-86
2021/11/14 11:56:12;;;;;;;44.05;26.73;;;410.30;1536.00;;;;;;4792630;29;20055;-86
2021/11/14 11:58:43;;;;;;;47.67;27.58;;;410.40;1536.00;;;;;;4792526;29;20070;-93
2021/11/14 12:01:28;;;;;;;29.67;20.27;;;460.90;1459.20;;;;;;4792546;29;20030;-87
2021/11/14 12:04:21;;;;;;;27.05;20.38;;;512.50;1254.40;;;;;;4792506;29;20035;-86
2021/11/14 12:06:54;;;;;;;27.88;20.23;;;487.20;1280.00;;;;;;4792681;29;20034;-86
2021/11/14 12:09:22;;;;;;;54.20;34.22;;;487.00;1280.00;;;;;;4791846;29;20038;-87
2021/11/14 12:11:49;;;;;;;30.75;20.45;;;486.80;1305.60;;;;;;4792412;29;20035;-93
2021/11/14 12:14:26;;;;;;;38.65;23.83;;;487.10;1305.60;;;;;;4792378;29;20027;-87
2021/11/14 12:17:03;;;;;;;39.42;25.52;;;461.70;1356.80;;;;;;4792204;29;20374;-87
2021/11/14 12:19:30;;;;;;;27.27;18.33;;;487.20;1305.60;;;;;;4793271;29;20047;-92
2021/11/14 12:21:59;;;;;;;26.55;18.38;;;563.80;1177.60;;;;;;4792735;29;20124;-93
2021/11/14 12:24:26;;;;;;;26.33;19.48;;;614.60;1024.00;;;;;;4792459;29;20031;-85
2021/11/14 12:26:52;;;;;;;24.77;18.48;;;589.60;1049.60;;;;;;4792232;29;20034;-85
2021/11/14 12:29:33;;;;;;;28.52;18.52;;;589.50;1024.00;;;;;;4791657;29;20054;-85
2021/11/14 12:32:17;;;;;;;28.50;20.00;;;538.50;1126.40;;;;;;4791995;29;20042;-85
2021/11/14 12:34:47;;;;;;;33.70;20.17;;;538.00;1177.60;;;;;;4791971;29;20031;-84
2021/11/14 12:37:14;;;;;;;26.17;18.75;;;537.80;1203.20;;;;;;4791771;29;20126;-85
2021/11/14 12:39:45;;;;;;;24.33;16.73;;;512.30;1254.40;;;;;;4791789;29;20039;-92
2021/11/14 12:42:19;;;;;;;22.38;16.77;;;486.90;1254.40;;;;;;4791716;29;20035;-86
2021/11/14 12:44:59;;;;;;;29.95;17.98;;;486.50;1331.20;;;;;;4791848;29;20042;-87
2021/11/14 12:47:37;;;;;;;32.30;20.75;;;487.00;1305.60;;;;;;4791456;29;20062;-83
2021/11/14 12:50:26;;;;;;;32.75;21.70;;;512.90;1203.20;;;;;;4791364;29;20037;-82
2021/11/14 12:53:06;;;;;;;28.90;21.02;;;;;;;;;;4787935;29;20378;-85
2021/11/14 12:55:32;;;;;;;35.10;22.95;;;563.70;1356.80;;;;;;4810938;29;20079;-87
2021/11/14 12:58:02;;;;;;;33.08;20.00;;;589.50;1100.80;;;;;;4800117;29;20107;-85
2021/11/14 13:00:34;;;;;;;29.83;20.95;;;589.50;1075.20;;;;;;4803224;29;20034;-83
2021/11/14 13:03:01;;;;;;;37.40;24.90;;;564.10;1126.40;;;;;;4789046;29;20034;-84
2021/11/14 13:05:29;;;;;;;28.98;21.25;;;614.40;1049.60;;;;;;4791187;29;20041;-85
2021/11/14 13:08:00;;;;;;;30.13;21.45;;;640.80;921.60;;;;;;4791226;29;20496;-82
2021/11/14 13:10:34;;;;;;;35.55;24.23;;;691.20;870.40;;;;;;4791040;29;20091;-81
2021/11/14 13:13:03;;;;;;;36.53;22.33;;;691.20;870.40;;;;;;4791051;29;20027;-83
2021/11/14 13:15:29;;;;;;;28.02;20.50;;;691.20;870.40;;;;;;4791446;29;20453;-85
2021/11/14 13:17:57;;;;;;;32.92;23.15;;;691.90;819.20;;;;;;4791271;29;20043;-89
2021/11/14 13:20:27;;;;;;;30.05;20.40;;;692.10;793.60;;;;;;4790733;29;20031;-84
2021/11/14 13:22:54;;;;;;;26.00;17.73;;;716.90;844.80;;;;;;4791129;29;20037;-84
2021/11/14 13:25:22;;;;;;;198.73;128.13;;;;;;;;;;4797258;29;20027;-87
2021/11/14 13:27:51;;;;;;;36.05;23.75;;;768.00;819.20;;;;;;4813595;29;20413;-86
2021/11/14 13:30:18;;;;;;;35.40;23.88;;;717.70;793.60;;;;;;4798097;29;20476;-89
2021/11/14 13:32:46;;;;;;;29.85;21.13;;;691.20;819.20;;;;;;4798572;29;20031;-87
2021/11/14 13:35:12;;;;;;;27.75;19.38;;;640.90;844.80;;;;;;4807263;29;20037;-90
2021/11/14 13:37:40;;;;;;;29.77;20.67;;;640.20;896.00;;;;;;4791115;29;20392;-88
2021/11/14 13:40:10;;;;;;;25.48;16.90;;;614.60;972.80;;;;;;4790808;29;20027;-91
2021/11/14 13:42:45;;;;;;;20.58;15.32;;;614.50;972.80;;;;;;4790909;29;20038;-90
2021/11/14 13:45:15;;;;;;;24.13;15.48;;;614.90;947.20;;;;;;4802253;29;20045;-90
2021/11/14 13:47:47;;;;;;;23.63;14.30;;;615.30;947.20;;;;;;4808985;29;20071;-88
2021/11/14 13:50:23;;;;;;;20.10;14.10;;;640.00;947.20;;;;;;4792046;29;20064;-90
2021/11/14 13:52:55;;;;;;;19.30;13.25;;;615.10;972.80;;;;;;4809397;29;20121;-88
2021/11/14 13:55:21;;;;;;;21.17;15.80;;;615.10;972.80;;;;;;4809119;29;20087;-89
2021/11/14 13:57:49;;;;;;;26.70;16.25;;;615.20;972.80;;;;;;4809010;29;20038;-87
2021/11/14 14:00:27;;;;;;;25.42;17.50;;;614.90;998.40;;;;;;4806133;29;20066;-87
2021/11/14 14:02:53;;;;;;;21.67;15.65;;;589.20;1049.60;;;;;;4790805;29;20034;-89
2021/11/14 14:05:23;;;;;;;27.92;17.90;;;564.00;1126.40;;;;;;4798548;29;20392;-90
2021/11/14 14:07:49;;;;;;;26.23;17.33;;;537.70;1254.40;;;;;;4804526;29;20035;-87
2021/11/14 14:10:17;;;;;;;27.75;18.58;;;487.10;1331.20;;;;;;4790373;29;20058;-87
2021/11/14 14:12:47;;;;;;;34.28;23.30;;;461.60;1408.00;;;;;;4790565;29;20033;-89
2021/11/14 14:15:31;;;;;;;28.23;17.33;;;460.90;1484.80;;;;;;4790499;29;20037;-88
2021/11/14 14:18:01;;;;;;;26.08;17.90;;;435.90;1561.60;;;;;;4790603;29;20374;-87
2021/11/14 14:20:28;;;;;;;31.42;19.10;;;435.40;1536.00;;;;;;4790578;29;20030;-88
2021/11/14 14:23:00;;;;;;;47.30;26.15;;;410.50;1612.80;;;;;;4790721;29;20031;-89
2021/11/14 14:25:33;;;;;;;36.08;22.67;;;410.20;1612.80;;;;;;4790792;29;20031;-89
2021/11/14 14:28:10;;;;;;;39.90;22.63;;;409.90;1689.60;;;;;;4790391;29;20035;-90
2021/11/14 14:30:37;;;;;;;35.83;22.80;;;409.60;1740.80;;;;;;4802476;29;20509;-91
2021/11/14 14:33:08;;;;;;;39.97;24.50;;;384.70;1740.80;;;;;;4810465;29;20030;-88
2021/11/14 14:35:52;;;;;;;42.05;25.80;;;384.50;1766.40;;;;;;4799198;29;20113;-89
2021/11/14 14:38:19;;;;;;;47.20;30.40;;;384.40;1817.60;;;;;;4791586;29;20038;-88
2021/11/14 14:40:50;;;;;;;46.25;29.60;;;384.20;1868.80;;;;;;4792789;29;20110;-88
2021/11/14 14:43:18;;;;;;;48.92;29.35;;;359.30;1920.00;;;;;;4793124;29;20083;-88
2021/11/14 14:46:03;;;;;;;42.17;27.40;;;359.10;1894.40;;;;;;4792447;29;20504;-88
2021/11/14 14:48:32;;;;;;;43.53;29.00;;;359.00;1945.60;;;;;;4793392;29;20130;-89
2021/11/14 14:50:58;;;;;;;40.15;26.75;;;358.90;1971.20;;;;;;4793328;29;20034;-88
2021/11/14 14:53:37;;;;;;;47.67;27.65;;;358.80;1996.80;;;;;;4808166;29;20039;-88
2021/11/14 14:56:33;;;;;;;46.63;25.58;;;358.60;2022.40;;;;;;4808536;29;20474;-88
2021/11/14 14:59:12;;;;;;;44.38;27.17;;;358.50;2022.40;;;;;;4792824;29;20126;-89
2021/11/14 15:01:54;;;;;;;37.95;25.52;;;358.40;2048.00;;;;;;4793158;29;20031;-88
2021/11/14 15:04:21;;;;;;;34.95;23.50;;;333.60;2073.60;;;;;;4793260;29;20520;-89
2021/11/14 15:07:15;;;;;;;81.53;40.50;;;333.50;2099.20;;;;;;4819283;29;20035;-88
2021/11/14 15:09:59;;;;;;;118.70;54.45;;;333.40;2099.20;;;;;;4789582;29;20516;-87
2021/11/14 15:12:29;;;;;;;;;;;333.30;2124.80;;;;;;4793699;29;20074;-87
2021/11/14 15:15:12;;;;;;;98.18;55.28;;;333.20;2150.40;;;;;;4793344;29;19909;-87
2021/11/14 15:17:38;;;;;;;115.47;66.75;;;333.10;2176.00;;;;;;4793131;29;20113;-88
2021/11/14 15:20:08;;;;;;;121.82;73.93;;;333.00;2176.00;;;;;;4792980;29;20034;-89
2021/11/14 15:22:38;;;;;;;155.25;81.55;;;332.90;2201.60;;;;;;4808021;29;20074;-90
2021/11/14 15:25:17;;;;;;;143.65;74.63;;;332.80;2227.20;;;;;;4808352;29;20122;-91
2021/11/14 15:27:46;;;;;;;148.05;79.97;;;308.10;2201.60;;;;;;4793194;29;20370;-89
2021/11/14 15:30:17;;;;;;;125.00;70.10;;;308.10;2227.20;;;;;;4792714;29;20054;-89
2021/11/14 15:32:43;;;;;;;175.63;96.30;;;308.00;2227.20;;;;;;4792899;29;20134;-89
2021/11/14 15:35:10;;;;;;;100.53;64.28;;;307.90;2252.80;;;;;;4791962;29;20030;-89
2021/11/14 15:37:36;;;;;;;262.27;131.10;;;307.70;2252.80;;;;;;4793850;29;20084;-88
2021/11/14 15:40:05;;;;;;;119.75;75.68;;;307.70;2252.80;;;;;;4794076;29;20122;-92
2021/11/14 15:42:32;;;;;;;180.88;109.45;;;307.60;2278.40;;;;;;4793635;29;20053;-93
2021/11/14 15:44:58;;;;;;;312.98;169.25;;;307.50;2278.40;;;;;;4791461;29;20035;-88
2021/11/14 15:47:24;;;;;;;374.52;194.23;;;307.40;2278.40;;;;;;4791074;29;20034;-85
2021/11/14 15:49:50;;;;;;;442.38;243.82;;;307.40;2278.40;;;;;;4791320;29;20023;-86
2021/11/14 15:52:16;;;;;;;603.70;305.52;;;307.30;2278.40;;;;;;4791507;29;20034;-86
2021/11/14 15:54:41;;;;;;;711.47;332.13;;;307.20;2304.00;;;;;;4791159;29;20031;-84
2021/11/14 15:57:07;;;;;;;918.70;446.02;;;282.50;2278.40;;;;;;4791265;29;20165;-86
2021/11/14 15:59:37;;;;;;;637.85;307.13;;;282.50;2278.40;;;;;;4791428;29;20080;-88
2021/11/14 16:02:04;;;;;;;652.72;294.85;;;282.40;2278.40;;;;;;4791156;29;20628;-88
2021/11/14 16:04:30;;;;;;;621.55;277.92;;;282.30;2278.40;;;;;;4791162;29;20066;-88
2021/11/14 16:06:56;;;;;;;747.05;354.60;;;282.30;2278.40;;;;;;4791160;29;20466;-86
2021/11/14 16:09:21;;;;;;;353.10;158.50;;;282.30;2278.40;;;;;;4791160;29;20034;-87
2021/11/14 16:11:47;;;;;;;342.42;156.55;;;282.20;2278.40;;;;;;4791261;29;20023;-92
2021/11/14 16:14:13;;;;;;;285.30;134.20;;;282.10;2278.40;;;;;;4791186;29;20397;-85
2021/11/14 16:16:39;;;;;;;213.82;106.95;;;282.00;2278.40;;;;;;4791246;29;20061;-88
2021/11/14 16:19:06;;;;;;;314.50;164.98;;;281.90;2278.40;;;;;;4790947;29;20105;-86
2021/11/14 16:21:32;;;;;;;200.80;117.07;;;282.30;2278.40;;;;;;4791193;29;20030;-86
2021/11/14 16:23:58;;;;;;;178.30;115.82;;;281.90;2278.40;;;;;;4790785;29;20027;-87
2021/11/14 16:26:24;;;;;;;123.95;82.57;;;281.80;2278.40;;;;;;4790875;29;20094;-86
2021/11/14 16:28:50;;;;;;;88.38;58.65;;;281.70;2278.40;;;;;;4790620;29;20034;-91
2021/11/14 16:31:17;;;;;;;45.22;33.13;;;281.70;2278.40;;;;;;4790200;29;20038;-87
2021/11/14 16:33:45;;;;;;;77.80;55.85;;;281.70;2278.40;;;;;;4791385;29;20039;-86
2021/11/14 16:36:11;;;;;;;80.30;57.53;;;281.60;2278.40;;;;;;4790850;29;20121;-91
2021/11/14 16:38:38;;;;;;;53.60;35.92;;;281.60;2278.40;;;;;;4790856;29;20041;-87
2021/11/14 16:41:08;;;;;;;55.85;37.25;;;281.60;2278.40;;;;;;4790909;29;20378;-86
2021/11/14 16:43:35;;;;;;;52.65;35.60;;;281.60;2278.40;;;;;;4789043;29;20042;-91
2021/11/14 16:46:02;;;;;;;68.00;46.63;;;256.80;2252.80;;;;;;4793795;29;20064;-89
2021/11/14 16:48:28;;;;;;;160.45;105.43;;;256.80;2252.80;;;;;;4791931;29;20079;-91
2021/11/14 16:50:57;;;;;;;114.22;80.10;;;256.80;2252.80;;;;;;4791891;29;20034;-88
2021/11/14 16:53:27;;;;;;;100.10;61.53;;;256.80;2252.80;;;;;;4792543;29;20493;-92
2021/11/14 16:55:54;;;;;;;140.95;80.50;;;256.70;2252.80;;;;;;4793458;29;20038;-92
2021/11/14 16:58:24;;;;;;;124.75;68.30;;;256.70;2252.80;;;;;;4791989;29;20039;-90
2021/11/14 17:00:52;;;;;;;103.28;61.45;;;256.60;2252.80;;;;;;4791676;29;20073;-86
2021/11/14 17:03:23;;;;;;;91.85;58.53;;;256.60;2252.80;;;;;;4791343;29;20041;-91
2021/11/14 17:05:49;;;;;;;115.82;72.55;;;256.40;2252.80;;;;;;4787633;29;20106;-92
2021/11/14 17:08:16;;;;;;;81.18;55.20;;;256.40;2252.80;;;;;;4791434;29;20031;-88
2021/11/14 17:10:43;;;;;;;133.05;96.20;;;256.40;2252.80;;;;;;4791397;29;20037;-90
2021/11/14 17:13:12;;;;;;;146.55;101.20;;;256.20;2252.80;;;;;;4791557;29;20077;-89
2021/11/14 17:15:38;;;;;;;163.05;111.03;;;256.30;2252.80;;;;;;4791711;29;20022;-91
2021/11/14 17:18:16;;;;;;;422.90;265.15;;;256.30;2252.80;;;;;;4791701;29;20050;-87
2021/11/14 17:20:43;;;;;;;228.93;135.95;;;256.20;2252.80;;;;;;4796446;29;20081;-87
2021/11/14 17:23:12;;;;;;;123.50;72.43;;;256.20;2252.80;;;;;;4791504;29;20023;-85
2021/11/14 17:26:08;;;;;;;99.55;63.90;;;256.10;2252.80;;;;;;4788560;29;20031;-90
2021/11/14 17:29:04;;;;;;;182.38;110.97;;;256.10;2252.80;;;;;;4792936;29;20048;-88
2021/11/14 17:31:34;;;;;;;413.92;271.05;;;256.00;2252.80;;;;;;4795487;29;20046;-91
2021/11/14 17:34:00;;;;;;;275.30;186.13;;;256.00;2252.80;;;;;;4801063;29;20073;-84
2021/11/14 17:36:26;;;;;;;219.55;143.05;;;256.00;2252.80;;;;;;4801666;29;20038;-82
2021/11/14 17:38:53;;;;;;;180.20;116.40;;;256.00;2252.80;;;;;;4794387;29;20043;-81
2021/11/14 17:41:28;;;;;;;191.45;123.18;;;256.00;2252.80;;;;;;4796033;29;20027;-82
2021/11/14 18:12:06;;;;;;;152.20;85.70;;;231.00;2252.80;;;;;;5007332;24;20066;-86
2021/11/14 20:28:30;;;;;;;99.88;64.10;;;205.60;2252.80;;;;;;4804479;29;20071;-80
2021/11/14 20:37:34;;;;;;;108.57;67.68;;;205.60;2252.80;;;;;;4801276;29;20184;-79
2021/11/14 21:10:14;;;;;;;113.07;69.20;;;205.50;2252.80;;;;;;5405750;24;20763;-82
2021/11/14 21:31:29;;;;;;;87.47;57.90;;;205.30;2252.80;;;;;;4871092;24;20047;-82
2021/11/14 21:34:27;;;;;;;96.68;62.60;;;205.30;2252.80;;;;;;4788611;30;20032;-82
2021/11/14 21:40:21;;;;;;;147.77;84.43;;;205.30;2252.80;;;;;;4771453;30;20192;-81
2021/11/14 21:43:09;;;;;;;112.32;63.25;;;205.20;2252.80;;;;;;4717014;30;20045;-86
